Time;durP1;ratioP1;P1;durP2;ratioP2;P2;SDS_P1;SDS_P2;PMS_P1;PMS_P2;Temp;Humidity;BMP_temperature;BMP_pressure;BME280_temperature;BME280_humidity;BME280_pressure;Samples;Min_cycle;Max_cycle;Signal;HPM_P1;HPM_P2
2023/04/21 00:00:56;;;;;;;12.70;8.90;;;;;;;8.71;54.93;100960.73;105324;280;38633;-71
2023/04/21 00:03:32;;;;;;;12.10;8.70;;;;;;;8.65;55.23;100961.55;105357;280;38804;-71
2023/04/21 00:06:06;;;;;;;11.70;8.50;;;;;;;8.61;55.43;100960.45;105322;280;38290;-71
2023/04/21 00:08:41;;;;;;;11.90;9.20;;;;;;;8.58;55.55;100961.52;105275;280;39664;-72
2023/04/21 00:14:39;;;;;;;11.70;8.80;;;;;;;8.46;56.04;100956.20;105247;277;38215;-70
2023/04/21 00:17:13;;;;;;;12.80;9.60;;;;;;;8.43;55.99;100955.39;105636;277;38858;-70
2023/04/21 00:19:47;;;;;;;11.00;9.20;;;;;;;8.40;56.03;100955.28;105633;277;38985;-70
2023/04/21 00:22:21;;;;;;;13.90;9.00;;;;;;;8.37;56.31;100957.08;105627;277;38425;-70
2023/04/21 00:24:55;;;;;;;12.90;9.60;;;;;;;8.35;56.45;100952.23;105675;277;39426;-71
2023/04/21 00:27:29;;;;;;;11.30;9.30;;;;;;;8.34;56.52;100954.67;105649;277;38505;-71
2023/04/21 00:30:03;;;;;;;12.10;8.60;;;;;;;8.33;56.60;100954.52;105620;277;39400;-70
2023/04/21 00:32:38;;;;;;;14.40;9.70;;;;;;;8.29;56.71;100952.67;105638;277;39442;-70
2023/04/21 00:35:12;;;;;;;12.70;9.40;;;;;;;8.27;56.88;100953.41;106070;276;39651;-70
2023/04/21 00:37:48;;;;;;;12.20;9.10;;;;;;;8.25;56.88;100950.33;106076;277;39578;-70
2023/04/21 00:40:23;;;;;;;12.10;9.10;;;;;;;8.25;56.93;100949.63;105676;277;38355;-70
2023/04/21 00:43:07;;;;;;;11.20;8.60;;;;;;;8.22;56.92;100948.63;105651;277;38358;-70
2023/04/21 00:45:41;;;;;;;11.30;8.80;;;;;;;8.20;57.05;100950.08;105253;280;39066;-70
2023/04/21 00:48:16;;;;;;;10.60;9.30;;;;;;;8.18;57.12;100950.27;105325;280;39657;-70
2023/04/21 00:50:49;;;;;;;11.10;8.60;;;;;;;8.15;57.23;100950.70;105714;280;38542;-70
2023/04/21 00:56:46;;;;;;;10.50;8.30;;;;;;;8.15;57.47;100949.81;105308;277;38216;-71
2023/04/21 00:59:21;;;;;;;10.10;8.00;;;;;;;8.18;57.56;100951.33;105654;277;38422;-72
2023/04/21 01:01:54;;;;;;;9.80;8.70;;;;;;;8.18;57.58;100947.67;106109;277;38760;-71
2023/04/21 01:04:34;;;;;;;12.20;9.00;;;;;;;8.20;57.54;100947.11;105649;277;38639;-71
2023/04/21 01:07:08;;;;;;;10.20;8.60;;;;;;;8.21;57.45;100949.02;105667;277;39386;-71
2023/04/21 01:09:56;;;;;;;12.10;8.40;;;;;;;8.19;57.47;100941.74;105356;276;39561;-70
2023/04/21 01:15:48;;;;;;;13.70;8.80;;;;;;;8.12;57.65;100942.05;105653;276;38328;-70
2023/04/21 01:18:22;;;;;;;9.70;8.00;;;;;;;8.10;57.68;100944.35;105685;276;38510;-70
2023/04/21 01:20:57;;;;;;;9.50;8.40;;;;;;;8.07;57.73;100942.52;105682;276;39915;-70
2023/04/21 01:23:31;;;;;;;23.70;9.10;;;;;;;8.04;57.77;100944.48;106147;276;38265;-72
2023/04/21 01:26:06;;;;;;;9.70;8.00;;;;;;;8.01;57.91;100943.30;106139;276;38466;-72
2023/04/21 01:28:40;;;;;;;10.50;8.30;;;;;;;7.98;57.94;100941.61;105693;276;39596;-71
2023/04/21 01:31:14;;;;;;;11.80;8.80;;;;;;;7.95;58.06;100946.02;105689;276;38248;-71
2023/04/21 01:33:49;;;;;;;10.10;8.00;;;;;;;7.93;58.14;100944.48;105663;276;39214;-71
2023/04/21 01:40:08;;;;;;;11.50;8.30;;;;;;;7.81;58.25;100942.10;105472;276;38188;-71
2023/04/21 01:42:43;;;;;;;10.90;8.20;;;;;;;7.78;58.29;100939.55;105446;278;39447;-69
2023/04/21 01:45:17;;;;;;;10.80;7.90;;;;;;;7.74;58.42;100943.26;105837;278;39481;-69
2023/04/21 01:47:51;;;;;;;9.40;7.20;;;;;;;7.71;58.50;100942.96;105435;278;39997;-71
2023/04/21 01:50:25;;;;;;;10.20;8.00;;;;;;;7.71;58.53;100941.73;105413;278;39647;-71
2023/04/21 01:52:59;;;;;;;11.70;7.60;;;;;;;7.71;58.57;100945.92;105419;279;38496;-70
2023/04/21 01:55:33;;;;;;;11.40;7.70;;;;;;;7.68;58.81;100943.52;105434;278;39416;-70
2023/04/21 01:58:07;;;;;;;13.90;8.30;;;;;;;7.68;58.84;100945.11;105428;279;39827;-70
2023/04/21 02:00:40;;;;;;;10.20;7.80;;;;;;;7.67;58.86;100944.77;105411;283;38477;-70
2023/04/21 02:03:14;;;;;;;10.60;8.10;;;;;;;7.67;58.89;100944.25;105840;279;38941;-70
2023/04/21 02:09:03;;;;;;;10.10;7.70;;;;;;;7.58;59.24;100942.66;105257;279;174615;-71
2023/04/21 02:11:38;;;;;;;11.90;7.80;;;;;;;7.56;59.16;100943.23;105634;277;38660;-70
2023/04/21 02:14:12;;;;;;;9.80;7.20;;;;;;;7.52;59.22;100940.86;105680;277;39637;-70
2023/04/21 02:16:45;;;;;;;11.40;7.30;;;;;;;7.47;59.26;100947.17;105589;277;38415;-70
2023/04/21 02:19:20;;;;;;;9.80;8.10;;;;;;;7.44;59.46;100942.54;105602;277;39399;-70
2023/04/21 02:21:54;;;;;;;9.90;7.70;;;;;;;7.41;59.45;100942.92;106019;277;38272;-70
2023/04/21 02:24:28;;;;;;;9.70;7.60;;;;;;;7.38;59.46;100939.51;105626;277;39407;-70
2023/04/21 02:27:02;;;;;;;10.40;7.40;;;;;;;7.36;59.53;100941.63;105638;277;38403;-70
2023/04/21 02:29:36;;;;;;;11.90;7.50;;;;;;;7.32;59.72;100943.60;106023;277;38603;-70
2023/04/21 02:32:16;;;;;;;11.30;8.10;;;;;;;7.29;59.86;100942.77;105625;277;38508;-70
2023/04/21 02:38:17;;;;;;;10.20;7.70;;;;;;;7.17;60.13;100946.61;105398;277;38218;-70
2023/04/21 02:40:51;;;;;;;10.00;7.50;;;;;;;7.13;59.98;100943.01;105638;277;39433;-70
2023/04/21 02:43:25;;;;;;;10.50;7.80;;;;;;;7.08;60.16;100943.26;105642;277;38432;-71
2023/04/21 02:45:59;;;;;;;9.30;7.00;;;;;;;7.00;60.30;100940.94;105644;277;38263;-72
2023/04/21 02:51:57;;;;;;;9.50;7.40;;;;;;;6.80;60.87;100941.57;105586;277;38355;-69
2023/04/21 02:54:31;;;;;;;9.40;7.40;;;;;;;6.72;60.92;100940.63;105647;277;38527;-70
2023/04/21 02:57:05;;;;;;;8.10;7.10;;;;;;;6.65;61.04;100938.80;105642;277;38529;-70
2023/04/21 02:59:39;;;;;;;9.20;6.70;;;;;;;6.61;61.31;100936.63;105370;279;38280;-70
2023/04/21 03:02:13;;;;;;;9.80;7.20;;;;;;;6.56;61.57;100937.71;105633;276;38263;-70
2023/04/21 03:04:47;;;;;;;9.30;7.60;;;;;;;6.56;61.74;100937.89;105639;277;39778;-70
2023/04/21 03:07:21;;;;;;;10.70;7.30;;;;;;;6.56;61.87;100938.77;105644;277;38741;-70
2023/04/21 03:09:55;;;;;;;8.20;6.60;;;;;;;6.53;61.78;100938.11;106071;277;39423;-72
2023/04/21 03:12:28;;;;;;;10.40;6.80;;;;;;;6.50;61.85;100937.96;105648;277;38836;-72
2023/04/21 03:15:02;;;;;;;9.80;7.30;;;;;;;6.47;61.80;100940.60;105635;265;38515;-71
2023/04/21 03:17:36;;;;;;;11.70;7.30;;;;;;;6.42;61.98;100938.23;105656;277;38253;-71
2023/04/21 03:20:11;;;;;;;8.30;6.80;;;;;;;6.37;61.86;100938.98;105626;277;39620;-72
2023/04/21 03:22:45;;;;;;;9.30;6.30;;;;;;;6.32;62.09;100936.27;105651;276;38374;-72
2023/04/21 03:25:19;;;;;;;9.70;6.50;;;;;;;6.25;62.15;100935.48;105653;277;38937;-70
2023/04/21 03:27:53;;;;;;;12.10;6.50;;;;;;;6.22;62.42;100938.11;105670;277;39413;-70
2023/04/21 03:30:27;;;;;;;10.20;7.10;;;;;;;6.21;62.50;100938.83;104983;277;907574;-72
2023/04/21 03:33:02;;;;;;;9.30;6.80;;;;;;;6.21;62.75;100937.27;105625;277;38217;-72
2023/04/21 03:35:36;;;;;;;11.30;7.20;;;;;;;6.17;62.69;100939.56;105659;277;38231;-72
2023/04/21 03:38:10;;;;;;;9.20;6.90;;;;;;;6.13;62.82;100942.72;105647;277;39703;-72
2023/04/21 03:43:33;;;;;;;9.40;7.10;;;;;;;6.04;62.97;100943.51;105799;278;39622;-72
2023/04/21 03:46:07;;;;;;;9.40;7.10;;;;;;;5.98;63.17;100944.44;105413;278;38416;-71
2023/04/21 03:48:40;;;;;;;11.50;6.50;;;;;;;5.95;63.28;100946.71;105404;278;38941;-71
2023/04/21 03:51:14;;;;;;;8.60;6.70;;;;;;;5.94;63.61;100950.02;105446;278;39052;-71
2023/04/21 03:53:48;;;;;;;12.30;7.50;;;;;;;5.94;63.81;100946.90;105838;278;38254;-71
2023/04/21 03:56:22;;;;;;;15.00;7.50;;;;;;;5.96;63.99;100948.77;105427;278;38441;-70
2023/04/21 03:58:56;;;;;;;12.20;8.10;;;;;;;5.97;64.10;100951.03;105839;278;38550;-70
2023/04/21 04:01:31;;;;;;;11.30;7.60;;;;;;;5.97;64.27;100953.63;105443;286;38500;-72
2023/04/21 04:04:05;;;;;;;17.90;7.70;;;;;;;5.98;64.42;100956.73;105653;280;38619;-73
2023/04/21 04:06:39;;;;;;;10.30;7.30;;;;;;;5.98;64.46;100959.33;105521;280;39433;-70
2023/04/21 04:09:13;;;;;;;12.90;7.40;;;;;;;6.01;64.73;100961.38;105219;280;40160;-70
2023/04/21 04:15:30;;;;;;;14.40;8.10;;;;;;;6.18;65.39;100961.73;105340;277;39210;-70
2023/04/21 04:18:04;;;;;;;14.40;7.60;;;;;;;6.35;65.67;100959.80;105554;277;38237;-70
2023/04/21 04:20:38;;;;;;;14.50;7.20;;;;;;;6.58;66.14;100964.03;105925;277;38944;-70
2023/04/21 04:23:12;;;;;;;13.90;7.70;;;;;;;7.02;67.32;100960.86;105899;277;39697;-71
2023/04/21 04:25:46;;;;;;;10.40;7.20;;;;;;;7.54;66.44;100958.87;105509;277;38644;-71
2023/04/21 04:28:21;;;;;;;19.00;7.50;;;;;;;7.94;65.58;100961.66;105543;277;38598;-71
2023/04/21 04:30:55;;;;;;;13.00;7.30;;;;;;;8.41;66.34;100960.80;105521;266;38285;-71
2023/04/21 04:40:32;;;;;;;14.50;6.80;;;;;;;12.33;60.32;100958.55;105378;277;38674;-72
2023/04/21 04:43:07;;;;;;;12.80;6.80;;;;;;;13.37;56.31;100957.25;105557;277;38511;-73
2023/04/21 04:45:42;;;;;;;14.00;6.70;;;;;;;14.19;53.17;100960.11;105511;277;39394;-71
2023/04/21 04:48:16;;;;;;;10.90;6.00;;;;;;;14.94;50.70;100962.06;105543;277;39890;-71
2023/04/21 04:50:50;;;;;;;10.30;5.50;;;;;;;15.72;48.61;100959.51;105931;277;39832;-72
2023/04/21 04:53:39;;;;;;;9.90;5.50;;;;;;;16.46;46.36;100954.98;105498;277;38872;-73
2023/04/21 04:56:13;;;;;;;8.20;5.20;;;;;;;17.27;43.28;100950.45;105084;280;38530;-73
2023/04/21 04:58:46;;;;;;;8.10;5.30;;;;;;;17.85;41.48;100947.95;105273;280;38847;-72
2023/04/21 05:01:21;;;;;;;8.20;5.70;;;;;;;18.30;39.49;100946.83;105394;278;41301;-72
2023/04/21 05:03:55;;;;;;;7.60;4.90;;;;;;;18.32;38.28;100953.58;105871;278;38370;-72
2023/04/21 05:06:38;;;;;;;7.80;5.10;;;;;;;18.12;37.63;100959.08;105402;278;38305;-73
2023/04/21 05:09:12;;;;;;;6.60;4.70;;;;;;;18.00;37.35;100957.30;105321;278;38416;-74
2023/04/21 05:11:46;;;;;;;8.30;4.90;;;;;;;18.14;37.25;100953.16;105361;279;38722;-71
2023/04/21 05:14:20;;;;;;;5.30;4.50;;;;;;;18.17;36.72;100956.11;105320;279;38255;-71
2023/04/21 05:16:54;;;;;;;5.90;4.50;;;;;;;18.21;35.24;100953.05;105809;279;39783;-73
2023/04/21 05:19:35;;;;;;;9.50;4.80;;;;;;;18.04;35.84;100951.98;105237;280;39433;-73
2023/04/21 05:25:32;;;;;;;5.60;4.60;;;;;;;18.10;35.37;100952.30;105309;276;39293;-72
2023/04/21 05:28:06;;;;;;;9.40;5.10;;;;;;;18.36;34.75;100949.65;105347;278;173973;-73
2023/04/21 05:30:40;;;;;;;7.90;4.70;;;;;;;18.83;35.18;100949.93;105875;278;39405;-73
2023/04/21 05:33:14;;;;;;;11.60;5.00;;;;;;;19.24;34.25;100950.84;105478;278;39428;-72
2023/04/21 05:35:48;;;;;;;7.30;4.70;;;;;;;19.66;33.08;100948.09;105464;278;38726;-72
2023/04/21 05:38:22;;;;;;;7.10;5.00;;;;;;;20.10;32.64;100948.47;105892;275;38491;-72
2023/04/21 05:44:47;;;;;;;8.70;4.90;;;;;;;21.78;31.45;100947.37;105403;278;39255;-72
2023/04/21 05:47:21;;;;;;;8.80;5.00;;;;;;;22.25;29.64;100953.41;105437;278;39386;-73
2023/04/21 05:49:57;;;;;;;9.20;4.70;;;;;;;22.61;28.91;100951.14;105331;278;171211;-73
2023/04/21 05:52:33;;;;;;;10.20;5.50;;;;;;;23.09;28.13;100948.52;105460;278;38633;-72
2023/04/21 05:55:09;;;;;;;8.40;6.00;;;;;;;23.56;27.76;100951.05;105243;278;38225;-73
2023/04/21 05:57:44;;;;;;;12.40;5.80;;;;;;;24.01;26.87;100942.45;105437;278;38800;-71
2023/04/21 06:00:20;;;;;;;13.00;6.10;;;;;;;24.42;26.18;100941.31;105450;278;39378;-72
2023/04/21 06:06:36;;;;;;;12.90;6.40;;;;;;;25.29;24.63;100938.05;105420;277;38204;-72
2023/04/21 06:09:11;;;;;;;7.80;5.00;;;;;;;25.44;24.15;100937.55;105508;277;38466;-72
2023/04/21 06:15:42;;;;;;;10.40;5.30;;;;;;;25.97;23.92;100938.90;105181;283;38429;-73
2023/04/21 06:21:44;;;;;;;8.50;4.50;;;;;;;26.89;22.66;100932.39;105429;277;39514;-73
2023/04/21 06:24:27;;;;;;;8.70;4.80;;;;;;;27.24;22.37;100932.16;105485;278;38714;-71
2023/04/21 06:27:01;;;;;;;8.00;4.00;;;;;;;27.46;21.45;100929.98;105405;278;38894;-71
2023/04/21 06:29:35;;;;;;;8.50;4.20;;;;;;;27.58;20.93;100927.00;105454;278;38610;-73
2023/04/21 06:32:09;;;;;;;8.70;4.30;;;;;;;27.87;21.48;100930.09;105425;278;38296;-73
2023/04/21 06:34:44;;;;;;;9.10;4.40;;;;;;;28.30;20.91;100927.19;105243;278;40828;-72
2023/04/21 06:37:19;;;;;;;8.30;4.00;;;;;;;28.31;20.49;100926.85;105466;278;38280;-73
2023/04/21 06:39:53;;;;;;;11.10;5.00;;;;;;;28.22;20.32;100926.38;105887;278;39200;-73
2023/04/21 06:42:38;;;;;;;6.50;5.20;;;;;;;28.26;20.09;100925.90;105436;278;38344;-73
2023/04/21 06:48:42;;;;;;;9.50;5.30;;;;;;;28.09;19.78;100926.66;105443;278;38191;-74
2023/04/21 06:51:16;;;;;;;11.60;6.20;;;;;;;27.98;19.83;100926.16;105397;278;39452;-74
2023/04/21 06:53:51;;;;;;;8.60;5.50;;;;;;;27.93;20.22;100928.34;105426;278;39397;-73
2023/04/21 06:56:25;;;;;;;9.00;4.60;;;;;;;27.98;20.23;100928.27;105835;278;38681;-74
2023/04/21 07:02:40;;;;;;;6.30;3.90;;;;;;;27.37;20.20;100922.69;105399;279;38188;-72
2023/04/21 07:05:15;;;;;;;8.20;4.10;;;;;;;27.11;20.28;100923.09;105465;278;38645;-74
2023/04/21 07:11:29;;;;;;;6.20;3.80;;;;;;;26.87;20.83;100926.47;105466;277;38362;-73
2023/04/21 07:14:03;;;;;;;8.80;4.00;;;;;;;26.91;20.93;100923.59;105919;277;39518;-73
2023/04/21 07:16:37;;;;;;;7.50;3.80;;;;;;;27.04;20.88;100922.71;105473;278;39632;-73
2023/04/21 07:19:11;;;;;;;11.30;3.80;;;;;;;27.19;21.14;100917.10;105452;278;39119;-72
2023/04/21 07:21:45;;;;;;;7.80;3.50;;;;;;;27.64;20.14;100922.81;105419;278;38286;-72
2023/04/21 07:24:29;;;;;;;9.20;3.60;;;;;;;27.70;19.54;100919.61;105901;278;39541;-73
2023/04/21 07:27:03;;;;;;;8.70;3.70;;;;;;;27.84;19.91;100921.73;105543;277;38917;-72
2023/04/21 07:42:02;;;;;;;4.90;3.50;;;;;;;29.45;18.44;100919.39;105558;277;38739;-72
2023/04/21 07:44:37;;;;;;;5.00;3.20;;;;;;;29.63;17.98;100916.56;105884;277;39896;-74
2023/04/21 07:47:11;;;;;;;8.90;3.50;;;;;;;29.76;17.86;100913.05;105447;278;38243;-74
2023/04/21 07:49:46;;;;;;;7.40;3.30;;;;;;;30.10;17.15;100914.89;105477;278;39670;-73
2023/04/21 07:52:20;;;;;;;5.00;3.10;;;;;;;30.41;17.70;100910.34;105490;278;38384;-73
2023/04/21 07:54:54;;;;;;;6.60;3.40;;;;;;;30.77;17.00;100912.73;105479;278;38435;-74
2023/04/21 07:57:30;;;;;;;3.90;2.70;;;;;;;30.98;16.55;100908.46;105444;278;39025;-73
2023/04/21 08:00:05;;;;;;;4.90;2.80;;;;;;;31.13;16.02;100900.94;105805;278;39815;-74
2023/04/21 08:02:39;;;;;;;10.50;3.60;;;;;;;31.25;16.33;100898.52;105331;278;173188;-75
2023/04/21 08:05:29;;;;;;;6.60;2.90;;;;;;;31.24;16.39;100893.75;105212;280;38404;-75
2023/04/21 08:08:04;;;;;;;8.20;2.90;;;;;;;31.28;16.24;100892.04;105116;280;38587;-75
2023/04/21 08:10:38;;;;;;;5.60;3.10;;;;;;;31.33;15.96;100890.55;105173;280;38278;-74
2023/04/21 08:13:12;;;;;;;8.40;2.60;;;;;;;31.46;15.93;100891.57;105157;280;38932;-74
2023/04/21 08:15:47;;;;;;;5.40;2.60;;;;;;;31.76;14.69;100887.00;105294;280;39487;-75
2023/04/21 08:18:22;;;;;;;7.50;2.80;;;;;;;31.82;15.26;100890.05;105324;280;39930;-75
2023/04/21 08:20:56;;;;;;;7.70;3.00;;;;;;;32.20;15.60;100888.39;105198;280;173186;-74
2023/04/21 08:23:31;;;;;;;6.50;3.20;;;;;;;32.61;14.22;100890.66;105283;280;38705;-74
2023/04/21 08:26:05;;;;;;;6.00;2.80;;;;;;;32.82;14.46;100890.67;105135;280;39670;-74
2023/04/21 08:28:39;;;;;;;6.20;2.90;;;;;;;33.15;14.13;100885.91;105321;280;38249;-75
2023/04/21 08:31:13;;;;;;;4.10;2.20;;;;;;;33.26;13.58;100886.65;105303;280;38309;-75
2023/04/21 08:33:47;;;;;;;3.80;2.20;;;;;;;33.23;12.49;100886.32;105705;280;39627;-75
2023/04/21 08:36:22;;;;;;;4.00;2.30;;;;;;;32.79;12.71;100882.26;105233;280;173199;-75
2023/04/21 08:38:56;;;;;;;3.70;2.60;;;;;;;32.65;12.73;100886.75;105154;280;38707;-75
2023/04/21 08:41:31;;;;;;;5.60;2.40;;;;;;;32.65;13.33;100882.58;105312;280;38419;-75
2023/04/21 08:44:05;;;;;;;8.10;3.10;;;;;;;32.69;12.24;100887.70;105311;280;38401;-75
2023/04/21 08:46:40;;;;;;;4.70;2.30;;;;;;;32.22;12.64;100888.13;105329;280;39547;-75
2023/04/21 08:49:14;;;;;;;5.10;2.50;;;;;;;32.14;12.63;100885.58;105286;280;39600;-75
2023/04/21 08:55:13;;;;;;;3.50;2.00;;;;;;;32.34;13.24;100879.50;105256;277;39292;-74
2023/04/21 09:01:25;;;;;;;5.10;2.30;;;;;;;32.80;13.19;100874.34;105342;277;38343;-76
2023/04/21 09:10:31;;;;;;;4.20;2.50;;;;;;;32.58;12.54;100876.04;105514;277;38349;-74
2023/04/21 09:13:10;;;;;;;6.80;2.80;;;;;;;32.46;12.08;100875.52;105482;278;38250;-74
2023/04/21 09:15:44;;;;;;;9.20;2.50;;;;;;;32.45;12.19;100869.70;105482;278;38683;-74
2023/04/21 09:18:19;;;;;;;3.00;2.20;;;;;;;32.46;11.66;100867.38;105424;278;39101;-74
2023/04/21 09:21:05;;;;;;;4.20;2.10;;;;;;;32.11;11.76;100864.90;105427;278;39642;-74
2023/04/21 09:23:49;;;;;;;4.50;2.40;;;;;;;31.71;12.35;100864.86;105487;278;38451;-74
2023/04/21 09:26:23;;;;;;;8.90;2.50;;;;;;;31.54;12.45;100864.83;105908;278;38380;-76
2023/04/21 09:28:57;;;;;;;3.70;1.80;;;;;;;31.35;12.43;100861.39;105934;278;39427;-75
2023/04/21 09:31:31;;;;;;;5.50;2.20;;;;;;;30.92;12.45;100860.16;105460;278;38762;-75
2023/04/21 09:34:11;;;;;;;4.60;2.20;;;;;;;30.38;12.57;100861.73;105449;278;38942;-75
2023/04/21 09:36:44;;;;;;;7.40;2.30;;;;;;;29.75;13.21;100864.98;105052;278;446994;-74
2023/04/21 09:39:19;;;;;;;5.20;2.70;;;;;;;29.30;13.82;100859.23;105336;278;38440;-74
2023/04/21 09:41:53;;;;;;;5.60;2.60;;;;;;;28.78;13.80;100850.27;105435;278;39717;-74
2023/04/21 09:44:27;;;;;;;3.00;2.30;;;;;;;28.32;14.54;100855.70;105500;278;38688;-74
2023/04/21 09:47:02;;;;;;;5.40;2.70;;;;;;;27.80;14.90;100856.11;105459;278;38990;-73
2023/04/21 09:49:43;;;;;;;4.30;2.50;;;;;;;27.30;15.53;100857.10;105429;278;39698;-74
2023/04/21 09:52:18;;;;;;;4.30;2.40;;;;;;;26.93;16.02;100851.95;105475;278;38262;-74
2023/04/21 09:55:03;;;;;;;3.60;2.50;;;;;;;26.63;16.56;100852.96;105898;278;38395;-74
2023/04/21 09:57:38;;;;;;;2.70;2.30;;;;;;;26.35;16.65;100852.24;105464;278;38267;-75
2023/04/21 10:00:14;;;;;;;3.30;2.60;;;;;;;26.12;17.20;100844.79;105450;278;38224;-74
2023/04/21 10:02:50;;;;;;;3.80;2.40;;;;;;;25.90;17.16;100845.92;105442;278;38521;-74
2023/04/21 10:05:27;;;;;;;3.00;2.40;;;;;;;25.64;17.20;100847.05;105471;278;38221;-73
2023/04/21 10:08:01;;;;;;;7.30;2.80;;;;;;;25.34;17.52;100841.45;105465;278;38329;-73
2023/04/21 10:10:38;;;;;;;4.20;2.40;;;;;;;25.23;17.60;100835.77;105899;278;38741;-73
2023/04/21 10:13:17;;;;;;;3.40;2.70;;;;;;;25.03;17.65;100835.88;105234;279;38123;-73
2023/04/21 10:15:51;;;;;;;3.00;2.40;;;;;;;24.83;17.71;100831.17;105466;278;38377;-72
2023/04/21 10:18:27;;;;;;;5.60;2.90;;;;;;;24.65;17.70;100828.60;105483;278;38232;-72
2023/04/21 10:21:04;;;;;;;3.30;2.50;;;;;;;24.46;18.54;100821.24;105489;278;38218;-73
2023/04/21 10:23:44;;;;;;;6.40;2.90;;;;;;;24.34;18.44;100818.00;105357;278;173779;-73
2023/04/21 10:26:22;;;;;;;2.80;2.30;;;;;;;24.26;18.29;100821.75;105927;278;38671;-73
2023/04/21 10:29:00;;;;;;;3.30;2.20;;;;;;;24.12;18.00;100811.36;105444;278;38264;-73
2023/04/21 10:31:37;;;;;;;2.80;2.30;;;;;;;24.02;17.99;100809.45;105482;278;38237;-73
2023/04/21 10:34:36;;;;;;;3.40;2.10;;;;;;;23.87;18.02;100807.73;105424;278;39398;-73
2023/04/21 10:37:16;;;;;;;4.40;2.40;;;;;;;23.66;17.77;100807.89;105276;278;38234;-72
2023/04/21 10:39:58;;;;;;;3.20;2.40;;;;;;;23.48;17.78;100813.33;105464;278;38217;-73
2023/04/21 10:42:36;;;;;;;4.00;2.50;;;;;;;23.19;17.68;100807.45;105465;278;38292;-73
2023/04/21 10:45:13;;;;;;;3.80;2.30;;;;;;;22.92;18.21;100802.81;105927;278;38236;-73
2023/04/21 10:47:50;;;;;;;2.90;2.20;;;;;;;22.74;18.52;100808.71;105473;278;38917;-73
2023/04/21 10:50:29;;;;;;;3.10;2.30;;;;;;;22.55;17.94;100807.03;105897;278;39436;-73
2023/04/21 10:53:12;;;;;;;2.80;2.20;;;;;;;22.33;18.08;100797.26;105920;278;38578;-73
2023/04/21 10:55:49;;;;;;;4.90;3.10;;;;;;;22.16;18.62;100797.59;105469;278;38319;-72
2023/04/21 10:58:24;;;;;;;7.30;2.70;;;;;;;22.11;18.70;100799.67;105346;278;171388;-72
2023/04/21 11:01:02;;;;;;;6.70;2.20;;;;;;;21.97;18.62;100803.30;105450;278;39407;-72
2023/04/21 11:03:39;;;;;;;4.00;2.70;;;;;;;21.88;18.88;100789.24;105878;278;39674;-73
2023/04/21 11:06:20;;;;;;;4.20;2.40;;;;;;;21.86;19.77;100785.16;105463;279;38524;-73
2023/04/21 11:09:02;;;;;;;3.50;2.20;;;;;;;21.86;19.09;100784.12;105524;277;38336;-73
2023/04/21 11:11:36;;;;;;;6.20;2.30;;;;;;;21.73;18.97;100785.15;105928;277;38234;-72
2023/04/21 11:14:11;;;;;;;3.20;2.00;;;;;;;21.56;18.56;100777.91;105531;277;38725;-72
2023/04/21 11:16:47;;;;;;;3.00;1.90;;;;;;;21.35;19.03;100781.14;105513;277;38521;-72
2023/04/21 11:19:23;;;;;;;2.70;2.10;;;;;;;21.21;19.00;100774.36;105489;277;38418;-72
2023/04/21 11:21:58;;;;;;;3.10;2.00;;;;;;;21.15;18.94;100775.39;105510;277;38800;-73
2023/04/21 11:24:32;;;;;;;3.40;2.30;;;;;;;20.97;18.79;100771.91;105536;277;38264;-72
2023/04/21 11:27:15;;;;;;;3.00;2.20;;;;;;;20.84;18.57;100765.46;105511;277;39696;-72
2023/04/21 11:29:49;;;;;;;4.50;2.40;;;;;;;20.70;19.08;100757.86;105907;277;38514;-72
2023/04/21 11:32:24;;;;;;;8.50;2.40;;;;;;;20.66;19.43;100756.48;105945;278;38230;-72
2023/04/21 11:34:58;;;;;;;5.20;2.60;;;;;;;20.60;19.51;100754.67;105517;277;39567;-72
2023/04/21 11:37:32;;;;;;;4.00;2.40;;;;;;;20.53;19.84;100745.06;105905;277;38465;-73
2023/04/21 11:40:09;;;;;;;4.40;2.40;;;;;;;20.52;19.77;100742.15;105901;278;39265;-73
2023/04/21 11:42:43;;;;;;;6.30;2.10;;;;;;;20.55;20.20;100745.98;105469;277;38389;-73
2023/04/21 11:45:21;;;;;;;3.50;2.40;;;;;;;20.49;19.38;100737.17;105444;277;39293;-72
2023/04/21 11:48:15;;;;;;;2.90;2.00;;;;;;;20.41;19.71;100736.70;105481;277;38407;-72
2023/04/21 11:50:51;;;;;;;4.50;2.00;;;;;;;20.29;19.91;100739.36;105913;277;38263;-73
2023/04/21 11:53:26;;;;;;;3.70;2.20;;;;;;;20.22;19.85;100741.98;105453;277;38338;-73
2023/04/21 11:56:04;;;;;;;3.80;2.10;;;;;;;20.12;20.03;100733.86;105467;277;39945;-74
2023/04/21 11:58:44;;;;;;;3.80;2.50;;;;;;;20.12;20.61;100731.77;105344;278;39455;-74
2023/04/21 12:01:20;;;;;;;5.90;2.40;;;;;;;20.10;20.65;100727.63;105901;277;39390;-72
2023/04/21 12:03:57;;;;;;;5.30;2.20;;;;;;;20.14;20.97;100730.53;105488;277;39416;-72
2023/04/21 12:06:31;;;;;;;3.40;2.40;;;;;;;20.09;20.28;100729.84;105482;277;38217;-72
2023/04/21 12:09:06;;;;;;;2.90;2.10;;;;;;;19.95;20.53;100730.44;105489;277;38219;-72
2023/04/21 12:11:43;;;;;;;4.00;2.30;;;;;;;19.92;20.87;100723.80;105899;277;38262;-74
2023/04/21 12:14:17;;;;;;;3.90;2.50;;;;;;;19.95;21.27;100711.36;105245;279;38935;-73
2023/04/21 12:16:54;;;;;;;3.30;2.50;;;;;;;20.01;21.85;100710.41;105458;277;38883;-72
2023/04/21 12:19:38;;;;;;;3.60;2.50;;;;;;;20.09;21.42;100707.50;105898;277;38295;-72
2023/04/21 12:22:12;;;;;;;3.10;2.20;;;;;;;20.15;21.19;100699.66;105285;278;38131;-73
2023/04/21 12:24:46;;;;;;;8.40;2.60;;;;;;;20.12;21.11;100699.48;105486;277;38473;-73
2023/04/21 12:27:20;;;;;;;7.20;2.60;;;;;;;20.04;21.46;100697.39;105481;277;38510;-74
2023/04/21 12:29:54;;;;;;;5.20;2.30;;;;;;;20.02;21.88;100696.83;105482;277;38379;-73
2023/04/21 12:32:28;;;;;;;3.60;2.30;;;;;;;20.01;21.52;100691.27;105492;277;38252;-72
2023/04/21 12:35:04;;;;;;;5.20;2.60;;;;;;;19.98;21.51;100690.05;105496;277;38224;-72
2023/04/21 12:37:37;;;;;;;3.30;2.30;;;;;;;19.94;20.94;100691.39;105927;277;39384;-72
2023/04/21 12:40:13;;;;;;;6.40;2.30;;;;;;;19.90;21.25;100692.23;105484;277;39663;-72
2023/04/21 12:42:47;;;;;;;2.50;2.00;;;;;;;19.81;21.24;100682.63;105498;277;38460;-72
2023/04/21 12:45:21;;;;;;;5.30;2.60;;;;;;;19.72;21.21;100686.45;105916;277;38597;-72
2023/04/21 12:47:56;;;;;;;6.20;2.30;;;;;;;19.67;21.34;100687.84;105467;278;38936;-72
2023/04/21 12:50:30;;;;;;;4.10;2.00;;;;;;;19.68;21.52;100684.45;105464;277;38751;-73
2023/04/21 12:53:04;;;;;;;5.00;2.30;;;;;;;19.63;21.10;100683.91;105478;277;39371;-74
2023/04/21 12:55:39;;;;;;;8.30;2.40;;;;;;;19.57;21.22;100688.38;105447;277;39384;-71
2023/04/21 12:58:15;;;;;;;9.60;2.70;;;;;;;19.49;21.17;100680.61;105442;277;38317;-71
2023/04/21 13:00:49;;;;;;;5.00;2.10;;;;;;;19.44;21.20;100674.62;105454;277;38543;-73
2023/04/21 13:03:23;;;;;;;7.50;2.60;;;;;;;19.41;21.49;100668.81;105476;277;39408;-73
2023/04/21 13:05:56;;;;;;;4.70;2.10;;;;;;;19.39;21.57;100667.19;105904;277;39585;-72
2023/04/21 13:08:30;;;;;;;6.10;2.20;;;;;;;19.33;21.35;100663.52;105329;277;39691;-72
2023/04/21 13:11:05;;;;;;;5.10;1.90;;;;;;;19.31;21.72;100661.70;105454;277;39500;-72
2023/04/21 13:13:39;;;;;;;3.70;2.20;;;;;;;19.30;21.86;100663.72;105914;277;38233;-72
2023/04/21 13:16:13;;;;;;;5.40;2.30;;;;;;;19.28;21.75;100658.38;105301;279;38381;-72
2023/04/21 13:18:48;;;;;;;3.20;2.20;;;;;;;19.27;21.70;100653.98;105477;277;38246;-72
2023/04/21 13:21:22;;;;;;;2.60;2.30;;;;;;;19.26;21.64;100650.19;105477;277;38211;-72
2023/04/21 13:23:56;;;;;;;6.10;2.40;;;;;;;19.25;21.83;100644.77;105517;274;38192;-72
2023/04/21 13:26:31;;;;;;;2.80;2.10;;;;;;;19.26;21.87;100639.77;105905;277;39165;-72
2023/04/21 13:29:05;;;;;;;5.70;2.30;;;;;;;19.26;22.26;100635.87;105886;278;39187;-72
2023/04/21 13:31:39;;;;;;;4.00;2.10;;;;;;;19.23;21.85;100641.54;105241;277;39624;-71
2023/04/21 13:34:13;;;;;;;3.40;2.20;;;;;;;19.18;22.21;100628.33;105916;277;38748;-71